sensor_id;sensor_type;location;lat;lon;timestamp;temperature;humidity
32977;DHT22;47687;50.842;4.450;2022-12-10T00:01:46;2.10;99.90
32977;DHT22;47687;50.842;4.450;2022-12-10T00:04:13;2.00;99.90
32977;DHT22;47687;50.842;4.450;2022-12-10T00:06:39;2.00;99.90
32977;DHT22;47687;50.842;4.450;2022-12-10T00:09:07;1.90;99.90
32977;DHT22;47687;50.842;4.450;2022-12-10T00:11:33;1.70;99.90
32977;DHT22;47687;50.842;4.450;2022-12-10T00:13:59;1.50;99.90
32977;DHT22;47687;50.842;4.450;2022-12-10T00:16:26;1.60;99.90
32977;DHT22;47687;50.842;4.450;2022-12-10T00:18:53;1.70;99.90
32977;DHT22;47687;50.842;4.450;2022-12-10T00:21:21;1.80;99.90
32977;DHT22;47687;50.842;4.450;2022-12-10T00:23:48;1.90;99.90
32977;DHT22;47687;50.842;4.450;2022-12-10T00:26:18;1.90;99.90
32977;DHT22;47687;50.842;4.450;2022-12-10T00:28:45;1.60;99.90
32977;DHT22;47687;50.842;4.450;2022-12-10T00:31:14;1.30;99.90
32977;DHT22;47687;50.842;4.450;2022-12-10T00:33:42;1.30;99.90
32977;DHT22;47687;50.842;4.450;2022-12-10T00:36:10;1.30;99.90
32977;DHT22;47687;50.842;4.450;2022-12-10T00:38:37;1.30;99.90
32977;DHT22;47687;50.842;4.450;2022-12-10T00:41:03;1.50;99.90
32977;DHT22;47687;50.842;4.450;2022-12-10T00:43:29;1.60;99.90
32977;DHT22;47687;50.842;4.450;2022-12-10T00:45:55;1.60;99.90
32977;DHT22;47687;50.842;4.450;2022-12-10T00:48:21;1.90;99.90
32977;DHT22;47687;50.842;4.450;2022-12-10T00:51:06;1.90;99.90
32977;DHT22;47687;50.842;4.450;2022-12-10T00:53:33;1.80;99.90
32977;DHT22;47687;50.842;4.450;2022-12-10T00:55:59;1.90;99.90
32977;DHT22;47687;50.842;4.450;2022-12-10T00:58:31;1.90;99.90
32977;DHT22;47687;50.842;4.450;2022-12-10T01:01:24;1.90;99.90
32977;DHT22;47687;50.842;4.450;2022-12-10T01:03:52;1.90;99.90
32977;DHT22;47687;50.842;4.450;2022-12-10T01:06:27;2.00;99.90
32977;DHT22;47687;50.842;4.450;2022-12-10T01:08:56;1.90;99.90
32977;DHT22;47687;50.842;4.450;2022-12-10T01:11:26;1.50;99.90
32977;DHT22;47687;50.842;4.450;2022-12-10T01:13:52;1.40;99.90
32977;DHT22;47687;50.842;4.450;2022-12-10T01:16:19;1.20;99.90
32977;DHT22;47687;50.842;4.450;2022-12-10T01:18:45;1.50;99.90
32977;DHT22;47687;50.842;4.450;2022-12-10T01:21:17;1.50;99.90
32977;DHT22;47687;50.842;4.450;2022-12-10T01:23:45;1.50;99.90
32977;DHT22;47687;50.842;4.450;2022-12-10T01:26:14;1.40;99.90
32977;DHT22;47687;50.842;4.450;2022-12-10T01:28:41;1.50;99.90
32977;DHT22;47687;50.842;4.450;2022-12-10T01:31:12;1.60;99.90
32977;DHT22;47687;50.842;4.450;2022-12-10T01:33:39;1.60;99.90
32977;DHT22;47687;50.842;4.450;2022-12-10T01:36:14;1.70;99.90
32977;DHT22;47687;50.842;4.450;2022-12-10T01:38:40;1.80;99.90
32977;DHT22;47687;50.842;4.450;2022-12-10T01:41:09;1.80;99.90
32977;DHT22;47687;50.842;4.450;2022-12-10T01:46:18;1.80;99.90
32977;DHT22;47687;50.842;4.450;2022-12-10T01:48:43;1.70;99.90
32977;DHT22;47687;50.842;4.450;2022-12-10T01:51:10;1.90;99.90
32977;DHT22;47687;50.842;4.450;2022-12-10T01:53:37;1.70;99.90
32977;DHT22;47687;50.842;4.450;2022-12-10T01:56:02;1.70;99.90
32977;DHT22;47687;50.842;4.450;2022-12-10T01:58:28;1.50;99.90
32977;DHT22;47687;50.842;4.450;2022-12-10T02:01:05;1.50;99.90
32977;DHT22;47687;50.842;4.450;2022-12-10T02:06:25;1.50;99.90
32977;DHT22;47687;50.842;4.450;2022-12-10T02:09:07;1.40;99.90
32977;DHT22;47687;50.842;4.450;2022-12-10T02:11:45;1.40;99.90
32977;DHT22;47687;50.842;4.450;2022-12-10T02:17:14;1.60;99.90
32977;DHT22;47687;50.842;4.450;2022-12-10T02:22:24;1.30;99.90
32977;DHT22;47687;50.842;4.450;2022-12-10T02:24:52;1.30;99.90
32977;DHT22;47687;50.842;4.450;2022-12-10T02:27:40;0.80;99.90
32977;DHT22;47687;50.842;4.450;2022-12-10T02:30:08;0.80;99.90
32977;DHT22;47687;50.842;4.450;2022-12-10T02:32:37;0.90;99.90
32977;DHT22;47687;50.842;4.450;2022-12-10T02:35:11;1.00;99.90
32977;DHT22;47687;50.842;4.450;2022-12-10T02:37:44;0.80;99.90
32977;DHT22;47687;50.842;4.450;2022-12-10T02:40:15;0.80;99.90
32977;DHT22;47687;50.842;4.450;2022-12-10T02:42:42;1.00;99.90
32977;DHT22;47687;50.842;4.450;2022-12-10T02:45:10;1.10;99.90
32977;DHT22;47687;50.842;4.450;2022-12-10T02:47:36;1.20;99.90
32977;DHT22;47687;50.842;4.450;2022-12-10T02:50:05;1.10;99.90
32977;DHT22;47687;50.842;4.450;2022-12-10T02:52:31;1.20;99.90
32977;DHT22;47687;50.842;4.450;2022-12-10T02:54:57;1.30;99.90
32977;DHT22;47687;50.842;4.450;2022-12-10T03:02:40;1.40;99.90
32977;DHT22;47687;50.842;4.450;2022-12-10T03:05:27;1.40;99.90
32977;DHT22;47687;50.842;4.450;2022-12-10T03:08:04;1.30;99.90
32977;DHT22;47687;50.842;4.450;2022-12-10T03:10:59;1.40;99.90
32977;DHT22;47687;50.842;4.450;2022-12-10T03:13:45;1.50;99.90
32977;DHT22;47687;50.842;4.450;2022-12-10T03:16:13;1.40;99.90
32977;DHT22;47687;50.842;4.450;2022-12-10T03:18:40;1.50;99.90
32977;DHT22;47687;50.842;4.450;2022-12-10T03:21:06;1.50;99.90
32977;DHT22;47687;50.842;4.450;2022-12-10T03:23:38;1.40;99.90
32977;DHT22;47687;50.842;4.450;2022-12-10T03:26:06;1.50;99.90
32977;DHT22;47687;50.842;4.450;2022-12-10T03:28:47;1.50;99.90
32977;DHT22;47687;50.842;4.450;2022-12-10T03:31:16;1.40;99.90
32977;DHT22;47687;50.842;4.450;2022-12-10T03:33:44;1.50;99.90
32977;DHT22;47687;50.842;4.450;2022-12-10T03:36:12;1.60;99.90
32977;DHT22;47687;50.842;4.450;2022-12-10T03:38:38;1.70;99.90
32977;DHT22;47687;50.842;4.450;2022-12-10T03:41:04;1.70;99.90
32977;DHT22;47687;50.842;4.450;2022-12-10T03:43:30;1.60;99.90
32977;DHT22;47687;50.842;4.450;2022-12-10T03:45:55;1.70;99.90
32977;DHT22;47687;50.842;4.450;2022-12-10T03:48:21;1.60;99.90
32977;DHT22;47687;50.842;4.450;2022-12-10T03:50:46;1.60;99.90
32977;DHT22;47687;50.842;4.450;2022-12-10T03:53:12;1.70;99.90
32977;DHT22;47687;50.842;4.450;2022-12-10T03:55:38;1.60;99.90
32977;DHT22;47687;50.842;4.450;2022-12-10T03:58:03;1.70;99.90
32977;DHT22;47687;50.842;4.450;2022-12-10T04:00:29;1.90;99.90
32977;DHT22;47687;50.842;4.450;2022-12-10T04:02:55;1.80;99.90
32977;DHT22;47687;50.842;4.450;2022-12-10T04:05:21;1.80;99.90
32977;DHT22;47687;50.842;4.450;2022-12-10T04:07:46;1.90;99.90
32977;DHT22;47687;50.842;4.450;2022-12-10T04:10:12;1.70;99.90
32977;DHT22;47687;50.842;4.450;2022-12-10T04:12:38;1.90;99.90
32977;DHT22;47687;50.842;4.450;2022-12-10T04:15:04;1.80;99.90
32977;DHT22;47687;50.842;4.450;2022-12-10T04:17:48;1.70;99.90
32977;DHT22;47687;50.842;4.450;2022-12-10T04:20:14;1.80;99.90
32977;DHT22;47687;50.842;4.450;2022-12-10T04:22:58;1.70;99.90
32977;DHT22;47687;50.842;4.450;2022-12-10T04:25:42;1.70;99.90
32977;DHT22;47687;50.842;4.450;2022-12-10T04:28:26;1.80;99.90
32977;DHT22;47687;50.842;4.450;2022-12-10T04:30:52;1.80;99.90
32977;DHT22;47687;50.842;4.450;2022-12-10T04:33:18;1.80;99.90
32977;DHT22;47687;50.842;4.450;2022-12-10T04:35:43;1.90;99.90
32977;DHT22;47687;50.842;4.450;2022-12-10T04:38:09;1.90;99.90
32977;DHT22;47687;50.842;4.450;2022-12-10T04:40:35;1.80;99.90
32977;DHT22;47687;50.842;4.450;2022-12-10T04:43:00;1.80;99.90
32977;DHT22;47687;50.842;4.450;2022-12-10T04:45:26;1.70;99.90
32977;DHT22;47687;50.842;4.450;2022-12-10T04:47:52;1.80;99.90
32977;DHT22;47687;50.842;4.450;2022-12-10T04:50:17;1.80;99.90
32977;DHT22;47687;50.842;4.450;2022-12-10T04:52:43;1.90;99.90
32977;DHT22;47687;50.842;4.450;2022-12-10T04:55:08;1.90;99.90
32977;DHT22;47687;50.842;4.450;2022-12-10T04:57:34;1.80;99.90
32977;DHT22;47687;50.842;4.450;2022-12-10T05:00:00;1.70;99.90
32977;DHT22;47687;50.842;4.450;2022-12-10T05:02:25;1.70;99.90
32977;DHT22;47687;50.842;4.450;2022-12-10T05:04:51;1.70;99.90
32977;DHT22;47687;50.842;4.450;2022-12-10T05:07:16;1.70;99.90
32977;DHT22;47687;50.842;4.450;2022-12-10T05:09:42;1.80;99.90
32977;DHT22;47687;50.842;4.450;2022-12-10T05:12:07;1.80;99.90
32977;DHT22;47687;50.842;4.450;2022-12-10T05:14:33;1.70;99.90
32977;DHT22;47687;50.842;4.450;2022-12-10T05:16:59;1.80;99.90
32977;DHT22;47687;50.842;4.450;2022-12-10T05:19:24;1.90;99.90
32977;DHT22;47687;50.842;4.450;2022-12-10T05:21:53;1.80;99.90
32977;DHT22;47687;50.842;4.450;2022-12-10T05:24:37;1.60;99.90
32977;DHT22;47687;50.842;4.450;2022-12-10T05:27:04;1.50;99.90
32977;DHT22;47687;50.842;4.450;2022-12-10T05:29:30;1.60;99.90
32977;DHT22;47687;50.842;4.450;2022-12-10T05:31:57;1.50;99.90
32977;DHT22;47687;50.842;4.450;2022-12-10T05:34:22;1.60;99.90
32977;DHT22;47687;50.842;4.450;2022-12-10T05:36:48;1.70;99.90
32977;DHT22;47687;50.842;4.450;2022-12-10T05:39:14;1.70;99.90
32977;DHT22;47687;50.842;4.450;2022-12-10T05:41:40;1.70;99.90
32977;DHT22;47687;50.842;4.450;2022-12-10T05:44:07;1.70;99.90
32977;DHT22;47687;50.842;4.450;2022-12-10T05:46:34;1.60;99.90
32977;DHT22;47687;50.842;4.450;2022-12-10T05:49:02;1.50;99.90
32977;DHT22;47687;50.842;4.450;2022-12-10T05:51:30;1.50;99.90
32977;DHT22;47687;50.842;4.450;2022-12-10T05:53:57;1.50;99.90
32977;DHT22;47687;50.842;4.450;2022-12-10T05:56:24;1.40;99.90
32977;DHT22;47687;50.842;4.450;2022-12-10T05:58:53;1.30;99.90
32977;DHT22;47687;50.842;4.450;2022-12-10T06:01:21;1.40;99.90
32977;DHT22;47687;50.842;4.450;2022-12-10T06:03:47;1.40;99.90
32977;DHT22;47687;50.842;4.450;2022-12-10T06:06:13;1.50;99.90
32977;DHT22;47687;50.842;4.450;2022-12-10T06:08:39;1.40;99.90
32977;DHT22;47687;50.842;4.450;2022-12-10T06:11:07;1.50;99.90
32977;DHT22;47687;50.842;4.450;2022-12-10T06:13:33;1.50;99.90
32977;DHT22;47687;50.842;4.450;2022-12-10T06:15:59;1.50;99.90
32977;DHT22;47687;50.842;4.450;2022-12-10T06:18:24;1.40;99.90
32977;DHT22;47687;50.842;4.450;2022-12-10T06:20:50;1.20;99.90
32977;DHT22;47687;50.842;4.450;2022-12-10T06:23:16;1.20;99.90
32977;DHT22;47687;50.842;4.450;2022-12-10T06:25:42;1.30;99.90
32977;DHT22;47687;50.842;4.450;2022-12-10T06:28:08;1.20;99.90
32977;DHT22;47687;50.842;4.450;2022-12-10T06:30:35;1.30;99.90
32977;DHT22;47687;50.842;4.450;2022-12-10T06:33:09;1.30;99.90
32977;DHT22;47687;50.842;4.450;2022-12-10T06:35:34;1.30;99.90
32977;DHT22;47687;50.842;4.450;2022-12-10T06:38:02;1.40;99.90
32977;DHT22;47687;50.842;4.450;2022-12-10T06:40:27;1.40;99.90
32977;DHT22;47687;50.842;4.450;2022-12-10T06:42:53;1.30;99.90
32977;DHT22;47687;50.842;4.450;2022-12-10T06:45:19;1.50;99.90
32977;DHT22;47687;50.842;4.450;2022-12-10T06:47:44;1.50;99.90
32977;DHT22;47687;50.842;4.450;2022-12-10T06:50:12;1.50;99.90
32977;DHT22;47687;50.842;4.450;2022-12-10T06:52:37;1.50;99.90
32977;DHT22;47687;50.842;4.450;2022-12-10T06:55:04;1.50;99.90
32977;DHT22;47687;50.842;4.450;2022-12-10T06:57:33;1.40;99.90
32977;DHT22;47687;50.842;4.450;2022-12-10T07:00:04;1.30;99.90
32977;DHT22;47687;50.842;4.450;2022-12-10T07:02:31;1.20;99.90
32977;DHT22;47687;50.842;4.450;2022-12-10T07:04:57;1.40;99.90
32977;DHT22;47687;50.842;4.450;2022-12-10T07:07:24;1.40;99.90
32977;DHT22;47687;50.842;4.450;2022-12-10T07:09:52;1.40;99.90
32977;DHT22;47687;50.842;4.450;2022-12-10T07:12:18;1.30;99.90
32977;DHT22;47687;50.842;4.450;2022-12-10T07:14:44;1.30;99.90
32977;DHT22;47687;50.842;4.450;2022-12-10T07:17:12;1.30;99.90
32977;DHT22;47687;50.842;4.450;2022-12-10T07:20:21;1.30;99.90
32977;DHT22;47687;50.842;4.450;2022-12-10T07:22:53;1.10;99.90
32977;DHT22;47687;50.842;4.450;2022-12-10T09:53:46;2.80;99.90
32977;DHT22;47687;50.842;4.450;2022-12-10T09:56:34;2.90;99.90
32977;DHT22;47687;50.842;4.450;2022-12-10T09:59:18;3.00;99.90
32977;DHT22;47687;50.842;4.450;2022-12-10T10:04:45;3.00;99.90
32977;DHT22;47687;50.842;4.450;2022-12-10T10:07:20;3.00;99.90
32977;DHT22;47687;50.842;4.450;2022-12-10T10:09:52;3.10;99.90
32977;DHT22;47687;50.842;4.450;2022-12-10T10:12:28;3.10;99.90
32977;DHT22;47687;50.842;4.450;2022-12-10T10:15:39;3.10;99.90
32977;DHT22;47687;50.842;4.450;2022-12-10T10:18:26;3.30;99.90
32977;DHT22;47687;50.842;4.450;2022-12-10T10:29:18;3.40;99.90
32977;DHT22;47687;50.842;4.450;2022-12-10T10:38:17;3.60;99.90
32977;DHT22;47687;50.842;4.450;2022-12-10T10:44:19;3.70;99.90
32977;DHT22;47687;50.842;4.450;2022-12-10T10:46:53;3.70;99.90
32977;DHT22;47687;50.842;4.450;2022-12-10T10:49:51;3.80;99.90
32977;DHT22;47687;50.842;4.450;2022-12-10T10:52:50;3.60;99.90
32977;DHT22;47687;50.842;4.450;2022-12-10T10:55:45;3.80;99.90
32977;DHT22;47687;50.842;4.450;2022-12-10T11:01:59;3.90;99.90
32977;DHT22;47687;50.842;4.450;2022-12-10T11:04:51;4.00;99.90
32977;DHT22;47687;50.842;4.450;2022-12-10T11:19:31;4.30;99.90
32977;DHT22;47687;50.842;4.450;2022-12-10T11:22:30;4.50;99.90
32977;DHT22;47687;50.842;4.450;2022-12-10T12:25:22;4.60;99.90
32977;DHT22;47687;50.842;4.450;2022-12-10T12:28:00;4.70;99.90
32977;DHT22;47687;50.842;4.450;2022-12-10T12:30:32;4.90;99.90
32977;DHT22;47687;50.842;4.450;2022-12-10T12:33:22;4.90;99.90
32977;DHT22;47687;50.842;4.450;2022-12-10T12:36:29;4.90;99.90
32977;DHT22;47687;50.842;4.450;2022-12-10T12:52:00;4.40;99.90
32977;DHT22;47687;50.842;4.450;2022-12-10T12:54:27;4.40;99.90
32977;DHT22;47687;50.842;4.450;2022-12-10T13:00:03;4.50;99.90
32977;DHT22;47687;50.842;4.450;2022-12-10T13:08:41;4.70;99.90
32977;DHT22;47687;50.842;4.450;2022-12-10T13:11:36;4.60;99.90
32977;DHT22;47687;50.842;4.450;2022-12-10T13:14:30;4.60;99.90
32977;DHT22;47687;50.842;4.450;2022-12-10T13:17:36;4.60;99.90
32977;DHT22;47687;50.842;4.450;2022-12-10T13:20:35;4.60;99.90
32977;DHT22;47687;50.842;4.450;2022-12-10T13:23:31;4.40;99.90
32977;DHT22;47687;50.842;4.450;2022-12-10T13:26:40;4.50;99.90
32977;DHT22;47687;50.842;4.450;2022-12-10T13:29:26;4.50;99.90
32977;DHT22;47687;50.842;4.450;2022-12-10T13:32:15;4.50;99.90
32977;DHT22;47687;50.842;4.450;2022-12-10T13:34:44;4.40;99.90
32977;DHT22;47687;50.842;4.450;2022-12-10T13:37:17;4.50;99.90
32977;DHT22;47687;50.842;4.450;2022-12-10T13:43:35;4.30;99.90
32977;DHT22;47687;50.842;4.450;2022-12-10T13:46:26;4.50;99.90
32977;DHT22;47687;50.842;4.450;2022-12-10T13:48:57;4.70;99.90
32977;DHT22;47687;50.842;4.450;2022-12-10T14:09:56;4.30;99.90
32977;DHT22;47687;50.842;4.450;2022-12-10T14:12:41;4.30;99.90
32977;DHT22;47687;50.842;4.450;2022-12-10T14:15:36;4.20;99.90
32977;DHT22;47687;50.842;4.450;2022-12-10T14:18:18;4.20;99.90
32977;DHT22;47687;50.842;4.450;2022-12-10T14:20:51;4.20;99.90
32977;DHT22;47687;50.842;4.450;2022-12-10T14:23:35;4.10;99.90
32977;DHT22;47687;50.842;4.450;2022-12-10T14:26:29;3.90;99.90
32977;DHT22;47687;50.842;4.450;2022-12-10T14:29:20;3.90;99.90
32977;DHT22;47687;50.842;4.450;2022-12-10T14:31:53;3.80;99.90
32977;DHT22;47687;50.842;4.450;2022-12-10T14:39:51;3.80;99.90
32977;DHT22;47687;50.842;4.450;2022-12-10T14:42:51;3.80;99.90
32977;DHT22;47687;50.842;4.450;2022-12-10T14:45:57;3.60;99.90
32977;DHT22;47687;50.842;4.450;2022-12-10T14:48:50;3.80;99.90
32977;DHT22;47687;50.842;4.450;2022-12-10T14:51:40;3.70;99.90
32977;DHT22;47687;50.842;4.450;2022-12-10T14:54:24;3.60;99.90
32977;DHT22;47687;50.842;4.450;2022-12-10T14:57:00;3.60;99.90
32977;DHT22;47687;50.842;4.450;2022-12-10T14:59:56;3.60;99.90
32977;DHT22;47687;50.842;4.450;2022-12-10T15:02:32;3.60;99.90
32977;DHT22;47687;50.842;4.450;2022-12-10T15:04:59;3.60;99.90
32977;DHT22;47687;50.842;4.450;2022-12-10T15:07:31;3.70;99.90
32977;DHT22;47687;50.842;4.450;2022-12-10T15:10:03;3.60;99.90
32977;DHT22;47687;50.842;4.450;2022-12-10T15:15:26;3.50;99.90
32977;DHT22;47687;50.842;4.450;2022-12-10T15:26:19;3.50;99.90
32977;DHT22;47687;50.842;4.450;2022-12-10T15:28:46;3.40;99.90
32977;DHT22;47687;50.842;4.450;2022-12-10T15:31:14;3.30;99.90
32977;DHT22;47687;50.842;4.450;2022-12-10T15:33:58;3.20;99.90
32977;DHT22;47687;50.842;4.450;2022-12-10T15:36:52;3.30;99.90
32977;DHT22;47687;50.842;4.450;2022-12-10T15:39:31;3.30;99.90
32977;DHT22;47687;50.842;4.450;2022-12-10T15:42:04;3.30;99.90
32977;DHT22;47687;50.842;4.450;2022-12-10T15:47:59;3.20;99.90
32977;DHT22;47687;50.842;4.450;2022-12-10T15:50:28;3.40;99.90
32977;DHT22;47687;50.842;4.450;2022-12-10T15:52:54;3.40;99.90
32977;DHT22;47687;50.842;4.450;2022-12-10T15:55:19;3.50;99.90
32977;DHT22;47687;50.842;4.450;2022-12-10T15:57:48;3.50;99.90
32977;DHT22;47687;50.842;4.450;2022-12-10T16:00:22;3.60;99.90
32977;DHT22;47687;50.842;4.450;2022-12-10T16:03:05;3.50;99.90
32977;DHT22;47687;50.842;4.450;2022-12-10T16:05:43;3.50;99.90
32977;DHT22;47687;50.842;4.450;2022-12-10T16:10:49;3.60;99.90
32977;DHT22;47687;50.842;4.450;2022-12-10T16:13:18;3.50;99.90
32977;DHT22;47687;50.842;4.450;2022-12-10T16:16:06;3.50;99.90
32977;DHT22;47687;50.842;4.450;2022-12-10T16:19:00;3.50;99.90
32977;DHT22;47687;50.842;4.450;2022-12-10T16:21:48;3.50;99.90
32977;DHT22;47687;50.842;4.450;2022-12-10T16:24:20;3.40;99.90
32977;DHT22;47687;50.842;4.450;2022-12-10T16:26:57;3.50;99.90
32977;DHT22;47687;50.842;4.450;2022-12-10T16:29:28;3.50;99.90
32977;DHT22;47687;50.842;4.450;2022-12-10T16:31:54;3.50;99.90
32977;DHT22;47687;50.842;4.450;2022-12-10T16:34:20;3.60;99.90
32977;DHT22;47687;50.842;4.450;2022-12-10T16:36:45;3.60;99.90
32977;DHT22;47687;50.842;4.450;2022-12-10T16:39:12;3.50;99.90
32977;DHT22;47687;50.842;4.450;2022-12-10T16:41:39;3.50;99.90
32977;DHT22;47687;50.842;4.450;2022-12-10T16:44:05;3.40;99.90
32977;DHT22;47687;50.842;4.450;2022-12-10T16:46:30;3.40;99.90
32977;DHT22;47687;50.842;4.450;2022-12-10T16:48:56;3.30;99.90
32977;DHT22;47687;50.842;4.450;2022-12-10T16:51:25;3.20;99.90
32977;DHT22;47687;50.842;4.450;2022-12-10T16:53:55;3.10;99.90
32977;DHT22;47687;50.842;4.450;2022-12-10T16:56:21;3.20;99.90
32977;DHT22;47687;50.842;4.450;2022-12-10T16:58:47;3.30;99.90
32977;DHT22;47687;50.842;4.450;2022-12-10T17:01:25;3.30;99.90
32977;DHT22;47687;50.842;4.450;2022-12-10T17:03:53;3.30;99.90
32977;DHT22;47687;50.842;4.450;2022-12-10T17:06:19;3.20;99.90
32977;DHT22;47687;50.842;4.450;2022-12-10T17:08:45;3.20;99.90
32977;DHT22;47687;50.842;4.450;2022-12-10T17:11:18;3.20;99.90
32977;DHT22;47687;50.842;4.450;2022-12-10T17:14:05;3.30;99.90
32977;DHT22;47687;50.842;4.450;2022-12-10T17:16:31;3.20;99.90
32977;DHT22;47687;50.842;4.450;2022-12-10T17:18:57;3.10;99.90
32977;DHT22;47687;50.842;4.450;2022-12-10T17:21:23;3.10;99.90
32977;DHT22;47687;50.842;4.450;2022-12-10T17:23:49;3.10;99.90
32977;DHT22;47687;50.842;4.450;2022-12-10T17:26:29;3.10;99.90
32977;DHT22;47687;50.842;4.450;2022-12-10T17:29:28;3.10;99.90
32977;DHT22;47687;50.842;4.450;2022-12-10T17:31:52;3.20;99.90
32977;DHT22;47687;50.842;4.450;2022-12-10T17:34:18;3.10;99.90
32977;DHT22;47687;50.842;4.450;2022-12-10T17:36:43;3.10;99.90
32977;DHT22;47687;50.842;4.450;2022-12-10T17:39:16;3.20;99.90
32977;DHT22;47687;50.842;4.450;2022-12-10T17:42:07;3.20;99.90
32977;DHT22;47687;50.842;4.450;2022-12-10T17:44:34;3.20;99.90
32977;DHT22;47687;50.842;4.450;2022-12-10T17:47:19;3.30;99.90
32977;DHT22;47687;50.842;4.450;2022-12-10T17:49:46;3.20;99.90
32977;DHT22;47687;50.842;4.450;2022-12-10T17:52:21;3.20;99.90
32977;DHT22;47687;50.842;4.450;2022-12-10T17:55:04;3.20;99.90
32977;DHT22;47687;50.842;4.450;2022-12-10T17:57:50;3.20;99.90
32977;DHT22;47687;50.842;4.450;2022-12-10T18:00:53;3.30;99.90
32977;DHT22;47687;50.842;4.450;2022-12-10T18:03:20;3.40;99.90
32977;DHT22;47687;50.842;4.450;2022-12-10T18:05:57;3.30;99.90
32977;DHT22;47687;50.842;4.450;2022-12-10T18:08:22;3.40;99.90
32977;DHT22;47687;50.842;4.450;2022-12-10T18:10:51;3.30;99.90
32977;DHT22;47687;50.842;4.450;2022-12-10T18:13:26;3.40;99.90
32977;DHT22;47687;50.842;4.450;2022-12-10T18:15:55;3.40;99.90
32977;DHT22;47687;50.842;4.450;2022-12-10T18:18:23;3.30;99.90
32977;DHT22;47687;50.842;4.450;2022-12-10T18:20:51;3.20;99.90
32977;DHT22;47687;50.842;4.450;2022-12-10T18:23:17;3.20;99.90
32977;DHT22;47687;50.842;4.450;2022-12-10T18:25:45;3.30;99.90
32977;DHT22;47687;50.842;4.450;2022-12-10T18:31:22;3.30;99.90
32977;DHT22;47687;50.842;4.450;2022-12-10T18:33:52;3.30;99.90
32977;DHT22;47687;50.842;4.450;2022-12-10T18:36:24;3.20;99.90
32977;DHT22;47687;50.842;4.450;2022-12-10T18:38:52;3.20;99.90
32977;DHT22;47687;50.842;4.450;2022-12-10T18:41:18;3.30;99.90
32977;DHT22;47687;50.842;4.450;2022-12-10T18:43:47;3.30;99.90
32977;DHT22;47687;50.842;4.450;2022-12-10T18:46:33;3.30;99.90
32977;DHT22;47687;50.842;4.450;2022-12-10T18:49:03;3.40;99.90
32977;DHT22;47687;50.842;4.450;2022-12-10T18:51:29;3.30;99.90
32977;DHT22;47687;50.842;4.450;2022-12-10T18:53:56;3.30;99.90
32977;DHT22;47687;50.842;4.450;2022-12-10T18:56:30;3.40;99.90
32977;DHT22;47687;50.842;4.450;2022-12-10T18:59:00;3.40;99.90
32977;DHT22;47687;50.842;4.450;2022-12-10T19:01:31;3.50;99.90
32977;DHT22;47687;50.842;4.450;2022-12-10T19:03:58;3.60;99.90
32977;DHT22;47687;50.842;4.450;2022-12-10T19:06:27;3.50;99.90
32977;DHT22;47687;50.842;4.450;2022-12-10T19:08:54;3.50;99.90
32977;DHT22;47687;50.842;4.450;2022-12-10T19:11:26;3.40;99.90
32977;DHT22;47687;50.842;4.450;2022-12-10T19:13:56;3.50;99.90
32977;DHT22;47687;50.842;4.450;2022-12-10T19:16:24;3.50;99.90
32977;DHT22;47687;50.842;4.450;2022-12-10T19:18:53;3.50;99.90
32977;DHT22;47687;50.842;4.450;2022-12-10T19:21:21;3.50;99.90
32977;DHT22;47687;50.842;4.450;2022-12-10T19:23:46;3.60;99.90
32977;DHT22;47687;50.842;4.450;2022-12-10T19:26:29;3.50;99.90
32977;DHT22;47687;50.842;4.450;2022-12-10T19:28:57;3.40;99.90
32977;DHT22;47687;50.842;4.450;2022-12-10T19:31:31;3.60;99.90
32977;DHT22;47687;50.842;4.450;2022-12-10T19:33:57;3.50;99.90
32977;DHT22;47687;50.842;4.450;2022-12-10T19:36:25;3.40;99.90
32977;DHT22;47687;50.842;4.450;2022-12-10T19:38:52;3.40;99.90
32977;DHT22;47687;50.842;4.450;2022-12-10T19:41:18;3.40;99.90
32977;DHT22;47687;50.842;4.450;2022-12-10T19:43:49;3.40;99.90
32977;DHT22;47687;50.842;4.450;2022-12-10T19:46:20;3.40;99.90
32977;DHT22;47687;50.842;4.450;2022-12-10T19:48:58;3.40;99.90
32977;DHT22;47687;50.842;4.450;2022-12-10T19:51:23;3.30;99.90
32977;DHT22;47687;50.842;4.450;2022-12-10T19:53:49;3.40;99.90
32977;DHT22;47687;50.842;4.450;2022-12-10T19:56:36;3.30;99.90
32977;DHT22;47687;50.842;4.450;2022-12-10T19:59:08;3.30;99.90
32977;DHT22;47687;50.842;4.450;2022-12-10T20:01:35;3.40;99.90
32977;DHT22;47687;50.842;4.450;2022-12-10T20:04:01;3.40;99.90
32977;DHT22;47687;50.842;4.450;2022-12-10T20:06:29;3.40;99.90
32977;DHT22;47687;50.842;4.450;2022-12-10T20:09:02;3.40;99.90
32977;DHT22;47687;50.842;4.450;2022-12-10T20:11:29;3.40;99.90
32977;DHT22;47687;50.842;4.450;2022-12-10T20:13:55;3.40;99.90
32977;DHT22;47687;50.842;4.450;2022-12-10T20:16:26;3.40;99.90
32977;DHT22;47687;50.842;4.450;2022-12-10T20:18:53;3.40;99.90
32977;DHT22;47687;50.842;4.450;2022-12-10T20:21:19;3.30;99.90
32977;DHT22;47687;50.842;4.450;2022-12-10T20:23:45;3.40;99.90
32977;DHT22;47687;50.842;4.450;2022-12-10T20:26:29;3.40;99.90
32977;DHT22;47687;50.842;4.450;2022-12-10T20:29:01;3.50;99.90
32977;DHT22;47687;50.842;4.450;2022-12-10T20:31:27;3.60;99.90
32977;DHT22;47687;50.842;4.450;2022-12-10T20:33:55;3.60;99.90
32977;DHT22;47687;50.842;4.450;2022-12-10T20:36:25;3.60;99.90
32977;DHT22;47687;50.842;4.450;2022-12-10T20:38:52;3.70;99.90
32977;DHT22;47687;50.842;4.450;2022-12-10T20:41:31;3.70;99.90
32977;DHT22;47687;50.842;4.450;2022-12-10T20:44:06;3.70;99.90
32977;DHT22;47687;50.842;4.450;2022-12-10T20:46:37;3.70;99.90
32977;DHT22;47687;50.842;4.450;2022-12-10T20:49:09;3.80;99.90
32977;DHT22;47687;50.842;4.450;2022-12-10T20:51:36;3.70;99.90
32977;DHT22;47687;50.842;4.450;2022-12-10T20:54:01;3.90;99.90
32977;DHT22;47687;50.842;4.450;2022-12-10T20:56:29;3.90;99.90
32977;DHT22;47687;50.842;4.450;2022-12-10T20:59:05;3.90;99.90
32977;DHT22;47687;50.842;4.450;2022-12-10T21:01:31;4.00;99.90
32977;DHT22;47687;50.842;4.450;2022-12-10T21:03:59;3.90;99.90
32977;DHT22;47687;50.842;4.450;2022-12-10T21:06:27;3.80;99.90
32977;DHT22;47687;50.842;4.450;2022-12-10T21:08:54;3.80;99.90
32977;DHT22;47687;50.842;4.450;2022-12-10T21:11:20;3.80;99.90
32977;DHT22;47687;50.842;4.450;2022-12-10T21:13:50;3.80;99.90
32977;DHT22;47687;50.842;4.450;2022-12-10T21:16:20;3.80;99.90
32977;DHT22;47687;50.842;4.450;2022-12-10T21:18:48;3.70;99.90
32977;DHT22;47687;50.842;4.450;2022-12-10T21:21:16;3.80;99.90
32977;DHT22;47687;50.842;4.450;2022-12-10T21:23:46;3.70;99.90
32977;DHT22;47687;50.842;4.450;2022-12-10T21:26:13;3.80;99.90
32977;DHT22;47687;50.842;4.450;2022-12-10T21:28:41;3.80;99.90
32977;DHT22;47687;50.842;4.450;2022-12-10T21:31:24;3.80;99.90
32977;DHT22;47687;50.842;4.450;2022-12-10T21:33:51;3.80;99.90
32977;DHT22;47687;50.842;4.450;2022-12-10T21:36:21;3.80;99.90
32977;DHT22;47687;50.842;4.450;2022-12-10T21:38:46;3.80;99.90
32977;DHT22;47687;50.842;4.450;2022-12-10T21:41:23;3.80;99.90
32977;DHT22;47687;50.842;4.450;2022-12-10T21:44:08;3.80;99.90
32977;DHT22;47687;50.842;4.450;2022-12-10T21:46:34;3.80;99.90
32977;DHT22;47687;50.842;4.450;2022-12-10T21:49:00;3.80;99.90